Norfolk, Virginia
Traffic Map
Current Weather Conditions
Norfolk, Virginia
Clear
Clear
22°
Feels Like: 22°
Wind Chill: 22° Ceiling: Unl
Heat Index: 22° Visibility: 10mi
Dew Point: 18° Wind: 15mph
Humidity: 78% Direction: 200° (SSW)
Pressure: 30.21in Gusts: 0mph
Raw Report DataKORF 270751Z AUTO 20013KT 10SM CLR 22/18 A3021 RMK AO2 SLP229 T02170178 TSNO
Traffic Incident Summary
Active as of:
Severity:
Category:
InformationThere was an issue retrieving the traffic information for this location. Please try a different location or try again shortly.
Advertisements
Track Severe Weather on mobile